Time;durP1;ratioP1;P1;durP2;ratioP2;P2;SDS_P1;SDS_P2;PMS_P1;PMS_P2;Temp;Humidity;BMP_temperature;BMP_pressure;BME280_temperature;BME280_humidity;BME280_pressure;Samples;Min_cycle;Max_cycle;Signal;HPM_P1;HPM_P2
2023/03/30 00:02:23;;;;;;;10.52;6.45;;;12.20;99.90;;;;;;5113094;28;20201;-75
2023/03/30 00:04:50;;;;;;;17.30;6.35;;;12.30;99.90;;;;;;5113560;28;20236;-73
2023/03/30 00:07:19;;;;;;;8.60;6.10;;;12.30;99.90;;;;;;5112762;28;20244;-73
2023/03/30 00:09:46;;;;;;;12.60;6.03;;;12.20;99.90;;;;;;5113493;28;20209;-76
2023/03/30 00:12:14;;;;;;;11.45;5.32;;;12.30;99.90;;;;;;5112912;28;20244;-75
2023/03/30 00:14:41;;;;;;;11.50;5.00;;;12.30;99.90;;;;;;5113449;28;20250;-76
2023/03/30 00:17:08;;;;;;;8.52;5.65;;;12.30;99.90;;;;;;5113418;28;20197;-75
2023/03/30 00:19:36;;;;;;;7.43;4.90;;;12.30;99.90;;;;;;5113435;28;20554;-75
2023/03/30 00:22:04;;;;;;;7.00;5.22;;;12.40;99.90;;;;;;5113219;28;20200;-74
2023/03/30 00:24:32;;;;;;;7.72;5.28;;;12.40;99.90;;;;;;5112925;28;20243;-75
2023/03/30 00:26:59;;;;;;;9.23;5.43;;;12.40;99.90;;;;;;5113176;28;20257;-76
2023/03/30 00:29:26;;;;;;;9.68;5.05;;;12.30;99.90;;;;;;5112701;28;20254;-75
2023/03/30 00:31:53;;;;;;;4.45;4.03;;;12.30;99.90;;;;;;5112945;28;20236;-75
2023/03/30 00:34:20;;;;;;;6.90;3.85;;;12.40;99.90;;;;;;5112201;28;20272;-74
2023/03/30 00:36:48;;;;;;;9.07;5.30;;;12.30;99.90;;;;;;5112997;28;20239;-80
2023/03/30 00:39:17;;;;;;;8.35;4.20;;;12.50;99.90;;;;;;5112787;28;20212;-83
2023/03/30 00:41:45;;;;;;;5.85;4.50;;;12.50;99.90;;;;;;5112976;28;20197;-77
2023/03/30 00:44:46;;;;;;;4.43;4.00;;;12.40;99.90;;;;;;5112387;28;20288;-76
2023/03/30 00:47:13;;;;;;;6.70;4.05;;;12.30;99.90;;;;;;5112250;28;20239;-76
2023/03/30 00:49:40;;;;;;;6.78;4.68;;;12.40;99.90;;;;;;5112834;28;20237;-75
2023/03/30 00:52:08;;;;;;;4.90;3.75;;;12.40;99.90;;;;;;5112597;28;20687;-77
2023/03/30 00:54:35;;;;;;;7.22;3.90;;;12.30;99.90;;;;;;5111876;28;20233;-73
2023/03/30 00:57:03;;;;;;;6.18;4.38;;;12.50;99.90;;;;;;5112586;28;20228;-80
2023/03/30 00:59:30;;;;;;;6.78;4.00;;;12.40;99.90;;;;;;5111741;28;20290;-76
2023/03/30 01:01:58;;;;;;;8.80;5.28;;;12.40;99.90;;;;;;5112580;28;20201;-79
2023/03/30 01:04:27;;;;;;;5.82;3.88;;;12.40;99.90;;;;;;5111957;28;20247;-79
2023/03/30 01:06:56;;;;;;;6.78;4.43;;;12.30;99.90;;;;;;5112279;28;20291;-75
2023/03/30 01:09:25;;;;;;;7.22;4.93;;;12.30;99.90;;;;;;5111689;28;20292;-76
2023/03/30 01:11:52;;;;;;;7.85;4.53;;;12.30;99.90;;;;;;5112268;28;20295;-75
2023/03/30 01:14:20;;;;;;;6.72;5.18;;;12.30;99.90;;;;;;5111782;28;20771;-79
2023/03/30 01:16:55;;;;;;;6.30;5.40;;;12.30;99.90;;;;;;5112367;28;20236;-79
2023/03/30 01:19:53;;;;;;;12.20;5.15;;;12.30;99.90;;;;;;5111765;28;20197;-81
2023/03/30 01:22:40;;;;;;;15.50;5.50;;;12.30;99.90;;;;;;5106554;28;20204;-82
2023/03/30 01:25:30;;;;;;;7.85;5.00;;;12.40;99.90;;;;;;5112190;28;20715;-80
2023/03/30 01:28:15;;;;;;;10.02;5.32;;;12.30;99.90;;;;;;5111941;28;20265;-73
2023/03/30 01:31:13;;;;;;;10.35;5.18;;;12.20;99.90;;;;;;5111874;28;20228;-72
2023/03/30 01:34:30;;;;;;;8.27;4.65;;;12.30;99.90;;;;;;5111532;28;20268;-78
2023/03/30 01:37:29;;;;;;;5.97;4.38;;;12.30;99.90;;;;;;5111723;28;20271;-77
2023/03/30 01:40:08;;;;;;;5.68;5.00;;;12.30;99.90;;;;;;5111617;28;20200;-79
2023/03/30 01:42:41;;;;;;;6.68;5.30;;;12.30;99.90;;;;;;5111956;28;20200;-76
2023/03/30 01:45:14;;;;;;;6.47;5.05;;;12.20;99.90;;;;;;5111859;28;20277;-75
2023/03/30 01:47:50;;;;;;;6.50;5.25;;;12.30;99.90;;;;;;5111667;28;20201;-74
2023/03/30 01:50:23;;;;;;;7.63;4.97;;;12.40;99.90;;;;;;5111094;28;20204;-80
2023/03/30 01:52:57;;;;;;;7.47;4.55;;;12.30;99.90;;;;;;5111669;28;20204;-79
2023/03/30 01:55:33;;;;;;;15.73;5.80;;;12.40;99.90;;;;;;5111182;28;20653;-80
2023/03/30 01:58:03;;;;;;;8.82;4.82;;;12.40;99.90;;;;;;5111774;28;20262;-80
2023/03/30 02:00:31;;;;;;;7.85;5.22;;;12.30;99.90;;;;;;5111025;28;20262;-77
2023/03/30 02:03:04;;;;;;;7.03;5.28;;;12.30;99.90;;;;;;5111818;28;20236;-79
2023/03/30 02:05:33;;;;;;;8.65;5.80;;;12.30;99.90;;;;;;5110886;28;20265;-85
2023/03/30 02:08:05;;;;;;;6.45;4.20;;;12.20;99.90;;;;;;5112466;28;20201;-79
2023/03/30 02:10:36;;;;;;;7.05;4.70;;;12.20;99.90;;;;;;5111234;28;20208;-74
2023/03/30 02:13:04;;;;;;;6.97;4.35;;;12.20;99.90;;;;;;5111363;28;20201;-81
2023/03/30 02:15:35;;;;;;;6.18;4.05;;;12.10;99.90;;;;;;5111194;28;20231;-77
2023/03/30 02:18:03;;;;;;;6.85;4.90;;;12.10;99.90;;;;;;5111385;28;20232;-78
2023/03/30 02:20:31;;;;;;;8.93;4.45;;;12.10;99.90;;;;;;5110858;28;20204;-75
2023/03/30 02:22:59;;;;;;;10.70;5.43;;;12.10;99.90;;;;;;5111360;28;20311;-79
2023/03/30 02:25:26;;;;;;;5.35;4.25;;;12.00;99.90;;;;;;5111003;28;20236;-79
2023/03/30 02:27:55;;;;;;;9.55;4.25;;;12.10;99.90;;;;;;5111284;28;20296;-78
2023/03/30 02:30:22;;;;;;;9.20;4.82;;;12.10;99.90;;;;;;5110816;28;20282;-77
2023/03/30 02:32:52;;;;;;;9.95;4.53;;;12.10;99.90;;;;;;5110967;28;20236;-78
2023/03/30 02:35:31;;;;;;;6.70;4.30;;;12.00;99.90;;;;;;5110543;28;20239;-79
2023/03/30 02:38:18;;;;;;;6.00;4.25;;;12.00;99.90;;;;;;5111185;28;20235;-76
2023/03/30 02:40:53;;;;;;;8.35;4.18;;;12.00;99.90;;;;;;5111262;28;20232;-75
2023/03/30 02:43:32;;;;;;;5.57;4.72;;;12.00;99.90;;;;;;5110520;28;20243;-74
2023/03/30 02:46:13;;;;;;;5.82;4.07;;;12.00;99.90;;;;;;5110673;28;20240;-75
2023/03/30 02:48:48;;;;;;;7.75;4.47;;;12.00;99.90;;;;;;5110879;28;20211;-81
2023/03/30 02:51:28;;;;;;;6.13;3.50;;;12.00;99.90;;;;;;5110902;28;20239;-81
2023/03/30 02:54:00;;;;;;;8.35;4.68;;;12.00;99.90;;;;;;5110885;28;20232;-77
2023/03/30 02:56:36;;;;;;;8.40;3.72;;;12.00;99.90;;;;;;5110677;28;20208;-79
2023/03/30 02:59:09;;;;;;;8.27;4.50;;;12.00;99.90;;;;;;5111338;28;20200;-80
2023/03/30 03:01:41;;;;;;;8.27;4.05;;;12.00;99.90;;;;;;5111089;28;20224;-75
2023/03/30 03:04:10;;;;;;;6.43;4.18;;;12.10;99.90;;;;;;5111042;28;20232;-74
2023/03/30 03:06:37;;;;;;;10.52;5.13;;;12.00;99.90;;;;;;5111311;28;20237;-77
2023/03/30 03:09:05;;;;;;;5.07;4.25;;;12.00;99.90;;;;;;5111297;28;20237;-75
2023/03/30 03:11:32;;;;;;;6.78;4.75;;;12.00;99.90;;;;;;5110330;28;20237;-76
2023/03/30 03:13:59;;;;;;;6.00;4.28;;;12.00;99.90;;;;;;5110726;28;20263;-74
2023/03/30 03:16:27;;;;;;;8.55;3.95;;;12.10;99.90;;;;;;5110058;28;20665;-74
2023/03/30 03:18:54;;;;;;;8.02;3.72;;;12.10;99.90;;;;;;5113592;28;20670;-74
2023/03/30 03:21:21;;;;;;;8.77;3.78;;;12.20;99.90;;;;;;5114295;28;20197;-74
2023/03/30 03:23:48;;;;;;;6.32;4.22;;;12.20;99.90;;;;;;5114086;28;20687;-79
2023/03/30 03:26:15;;;;;;;11.32;4.45;;;12.20;99.90;;;;;;5113948;28;20254;-78
2023/03/30 03:28:43;;;;;;;5.40;4.35;;;12.30;99.90;;;;;;5114281;28;20232;-80
2023/03/30 03:31:11;;;;;;;6.85;4.35;;;12.20;99.90;;;;;;5113552;28;20201;-77
2023/03/30 03:33:39;;;;;;;10.30;5.05;;;12.20;99.90;;;;;;5114125;28;20236;-74
2023/03/30 03:36:07;;;;;;;7.40;5.00;;;12.20;99.90;;;;;;5114393;28;20699;-76
2023/03/30 03:38:35;;;;;;;4.72;4.32;;;12.20;99.90;;;;;;5113867;28;20629;-78
2023/03/30 03:41:02;;;;;;;6.30;3.92;;;12.10;99.90;;;;;;5114092;28;20258;-78
2023/03/30 03:43:29;;;;;;;8.65;5.03;;;12.10;99.90;;;;;;5113636;28;20240;-78
2023/03/30 03:45:57;;;;;;;12.15;4.78;;;12.10;99.90;;;;;;5113632;28;20232;-77
2023/03/30 03:48:25;;;;;;;9.55;4.70;;;12.20;99.90;;;;;;5113535;28;20240;-78
2023/03/30 03:50:54;;;;;;;7.22;5.10;;;12.10;99.90;;;;;;5113751;28;20201;-77
2023/03/30 03:53:22;;;;;;;6.50;5.13;;;12.00;99.90;;;;;;5113326;28;20236;-76
2023/03/30 03:55:49;;;;;;;6.07;4.78;;;12.00;99.90;;;;;;5113981;28;20293;-77
2023/03/30 03:58:16;;;;;;;6.97;4.75;;;12.00;99.90;;;;;;5113222;28;20201;-76
2023/03/30 04:00:43;;;;;;;8.40;5.82;;;12.00;99.90;;;;;;5113431;28;20257;-79
2023/03/30 04:03:11;;;;;;;16.02;5.40;;;12.00;99.90;;;;;;5113471;28;20236;-80
2023/03/30 04:05:38;;;;;;;6.38;4.10;;;12.00;99.90;;;;;;5114206;28;20212;-78
2023/03/30 04:08:09;;;;;;;8.18;4.70;;;12.00;99.90;;;;;;5114185;28;20227;-77
2023/03/30 04:10:37;;;;;;;9.32;4.03;;;12.00;99.90;;;;;;5113747;28;20205;-78
2023/03/30 04:13:04;;;;;;;6.78;4.30;;;12.00;99.90;;;;;;5114448;28;20205;-78
2023/03/30 04:15:31;;;;;;;6.38;4.65;;;12.00;99.90;;;;;;5112901;28;20270;-74
2023/03/30 04:17:58;;;;;;;7.10;4.32;;;12.00;99.90;;;;;;5113469;28;20286;-76
2023/03/30 04:20:26;;;;;;;4.85;4.30;;;12.00;99.90;;;;;;5113042;28;20638;-75
2023/03/30 04:22:53;;;;;;;8.50;5.25;;;12.00;99.90;;;;;;5113143;28;20228;-79
2023/03/30 04:25:24;;;;;;;5.82;5.00;;;12.00;99.90;;;;;;5112729;28;20674;-80
2023/03/30 04:27:51;;;;;;;6.38;4.45;;;11.90;99.90;;;;;;5113029;28;20608;-76
2023/03/30 04:30:21;;;;;;;9.30;4.75;;;11.90;99.90;;;;;;5112509;28;20680;-76
2023/03/30 04:33:01;;;;;;;7.85;4.32;;;11.80;99.90;;;;;;5110725;28;20646;-76
2023/03/30 04:35:29;;;;;;;8.30;5.38;;;11.80;99.90;;;;;;5101501;28;20218;-76
2023/03/30 04:37:56;;;;;;;10.55;4.78;;;11.80;99.90;;;;;;5112940;28;20247;-77
2023/03/30 04:40:26;;;;;;;9.95;3.75;;;11.80;99.90;;;;;;5111940;28;20270;-76
2023/03/30 04:42:53;;;;;;;6.40;3.70;;;11.70;99.90;;;;;;5112420;28;20201;-81
2023/03/30 04:45:20;;;;;;;5.40;4.28;;;11.60;99.90;;;;;;5112070;28;20247;-75
2023/03/30 04:47:47;;;;;;;9.38;4.93;;;11.70;99.90;;;;;;5112627;28;20291;-77
2023/03/30 04:50:14;;;;;;;6.28;4.97;;;11.60;99.90;;;;;;5112291;28;20275;-76
2023/03/30 04:52:42;;;;;;;5.63;4.50;;;11.70;99.90;;;;;;5112004;28;20239;-77
2023/03/30 04:55:11;;;;;;;10.38;4.20;;;11.60;99.90;;;;;;5112309;28;20241;-74
2023/03/30 04:57:40;;;;;;;6.97;4.60;;;11.60;99.90;;;;;;5112009;28;20209;-78
2023/03/30 05:00:09;;;;;;;5.93;4.28;;;11.50;99.90;;;;;;5112693;28;20243;-76
2023/03/30 05:02:37;;;;;;;7.15;4.85;;;11.50;99.90;;;;;;5111958;28;20203;-77
2023/03/30 05:05:04;;;;;;;8.38;5.40;;;11.40;99.90;;;;;;5112472;28;20201;-75
2023/03/30 05:07:32;;;;;;;6.68;5.38;;;11.40;99.90;;;;;;5111637;28;20236;-77
2023/03/30 05:09:59;;;;;;;9.95;6.35;;;11.40;99.90;;;;;;5112344;28;20212;-75
2023/03/30 05:12:26;;;;;;;7.55;6.50;;;11.40;99.90;;;;;;5111602;28;20201;-73
2023/03/30 05:14:54;;;;;;;7.00;5.80;;;11.30;99.90;;;;;;5111975;28;20696;-74
2023/03/30 05:17:21;;;;;;;6.78;4.75;;;11.20;99.90;;;;;;5111370;28;20200;-77
2023/03/30 05:19:48;;;;;;;10.35;5.18;;;11.20;99.90;;;;;;5111968;28;20200;-76
2023/03/30 05:22:16;;;;;;;9.55;4.88;;;11.30;99.90;;;;;;5110814;28;20224;-81
2023/03/30 05:24:43;;;;;;;7.82;5.20;;;11.30;99.90;;;;;;5109298;27;20740;-73
2023/03/30 05:27:10;;;;;;;5.95;4.97;;;11.10;99.90;;;;;;5110112;28;20262;-72
2023/03/30 05:29:38;;;;;;;5.97;4.53;;;11.00;99.90;;;;;;5104482;28;20257;-75
2023/03/30 05:32:06;;;;;;;6.72;4.80;;;11.10;99.90;;;;;;5112067;28;20200;-75
2023/03/30 05:34:33;;;;;;;6.57;5.03;;;11.10;99.90;;;;;;5111684;28;20254;-74
2023/03/30 05:37:00;;;;;;;6.32;4.80;;;11.20;99.90;;;;;;5111557;28;20201;-77
2023/03/30 05:39:27;;;;;;;8.67;5.60;;;11.20;99.90;;;;;;5111272;28;20205;-74
2023/03/30 05:41:54;;;;;;;8.47;5.60;;;11.30;99.90;;;;;;5110941;28;20244;-78
2023/03/30 05:44:21;;;;;;;7.13;5.30;;;11.20;99.90;;;;;;5111429;28;20204;-75
2023/03/30 05:46:48;;;;;;;8.55;5.13;;;11.30;99.90;;;;;;5111175;28;20241;-76
2023/03/30 05:49:17;;;;;;;6.15;5.55;;;11.20;99.90;;;;;;5111469;28;20236;-76
2023/03/30 05:51:43;;;;;;;7.20;5.65;;;11.20;99.90;;;;;;5111624;28;20213;-75
2023/03/30 05:54:11;;;;;;;6.88;4.93;;;11.20;99.90;;;;;;5111029;28;20647;-75
2023/03/30 05:56:39;;;;;;;7.03;4.88;;;11.20;99.90;;;;;;5110581;28;20208;-75
2023/03/30 05:59:06;;;;;;;8.15;5.18;;;11.20;99.90;;;;;;5111528;28;20684;-74
2023/03/30 06:01:33;;;;;;;6.38;5.22;;;11.20;99.90;;;;;;5110715;28;20672;-76
2023/03/30 06:04:00;;;;;;;9.15;4.95;;;11.30;99.90;;;;;;5111604;28;20285;-77
2023/03/30 06:06:28;;;;;;;9.52;5.32;;;11.30;99.90;;;;;;5111004;28;20248;-76
2023/03/30 06:08:55;;;;;;;6.00;4.50;;;11.20;99.90;;;;;;5111481;28;20240;-78
2023/03/30 06:11:22;;;;;;;5.93;4.30;;;11.10;99.90;;;;;;5112618;28;20208;-76
2023/03/30 06:13:49;;;;;;;10.48;5.10;;;11.10;99.90;;;;;;5111077;28;20255;-80
2023/03/30 06:16:16;;;;;;;6.85;5.32;;;11.20;99.90;;;;;;5112129;28;20765;-79
2023/03/30 06:18:43;;;;;;;13.55;6.10;;;11.30;99.90;;;;;;5120893;28;20244;-79
2023/03/30 06:21:10;;;;;;;9.15;6.45;;;11.30;99.90;;;;;;5109508;28;20240;-73
2023/03/30 06:23:39;;;;;;;11.68;5.47;;;11.40;99.90;;;;;;5111819;28;20200;-76
2023/03/30 06:26:07;;;;;;;9.60;6.20;;;11.50;99.90;;;;;;5111008;28;20232;-84
2023/03/30 06:28:34;;;;;;;8.57;4.55;;;11.60;99.90;;;;;;5109305;28;20289;-84
2023/03/30 06:31:01;;;;;;;10.70;5.80;;;11.90;99.90;;;;;;5107898;28;20243;-84
2023/03/30 06:33:30;;;;;;;10.82;5.30;;;12.10;99.90;;;;;;5101212;28;20422;-80
2023/03/30 06:35:57;;;;;;;6.38;4.68;;;12.40;99.90;;;;;;5108976;28;20233;-84
2023/03/30 06:38:24;;;;;;;7.07;5.80;;;12.40;99.90;;;;;;5106943;28;20236;-84
2023/03/30 06:40:53;;;;;;;12.85;5.63;;;12.40;99.90;;;;;;5110047;28;20241;-79
2023/03/30 06:43:21;;;;;;;8.35;6.63;;;12.10;99.90;;;;;;5110630;28;20263;-81
2023/03/30 06:45:52;;;;;;;7.68;6.30;;;12.10;99.90;;;;;;5110709;28;20197;-80
2023/03/30 06:48:21;;;;;;;7.00;4.65;;;12.10;99.90;;;;;;5110799;28;20240;-79
2023/03/30 06:50:48;;;;;;;10.30;5.97;;;12.20;99.90;;;;;;5110896;28;20197;-79
2023/03/30 06:53:15;;;;;;;9.55;6.05;;;12.20;99.90;;;;;;5112732;28;20225;-81
2023/03/30 06:55:42;;;;;;;9.25;5.75;;;12.30;99.90;;;;;;5114813;28;20279;-80
2023/03/30 06:58:11;;;;;;;9.52;6.57;;;12.30;99.90;;;;;;5115537;27;20252;-77
2023/03/30 07:00:38;;;;;;;10.75;5.95;;;12.40;99.90;;;;;;5114974;28;20240;-80
2023/03/30 07:03:05;;;;;;;8.38;5.35;;;12.60;99.90;;;;;;5115477;28;20205;-79
2023/03/30 07:05:32;;;;;;;11.23;6.05;;;12.60;99.90;;;;;;5114465;28;20197;-77
2023/03/30 07:07:59;;;;;;;10.02;6.20;;;12.70;99.90;;;;;;5114409;28;20204;-79
2023/03/30 07:10:26;;;;;;;6.22;5.13;;;12.80;99.90;;;;;;5114299;28;20208;-79
2023/03/30 07:12:53;;;;;;;6.97;6.28;;;13.20;99.90;;;;;;5114845;28;20247;-76
2023/03/30 07:15:23;;;;;;;11.68;4.90;;;13.40;99.90;;;;;;5114093;28;20260;-79
2023/03/30 07:17:50;;;;;;;11.70;4.97;;;13.70;99.90;;;;;;5112846;28;20648;-81
2023/03/30 07:20:17;;;;;;;6.20;4.82;;;13.40;99.90;;;;;;5113412;28;20261;-78
2023/03/30 07:22:44;;;;;;;7.07;5.40;;;13.30;99.90;;;;;;5114104;28;20269;-76
2023/03/30 07:25:12;;;;;;;7.95;5.35;;;13.40;99.90;;;;;;5111768;28;20223;-79
2023/03/30 07:27:39;;;;;;;8.52;6.53;;;13.60;99.90;;;;;;5119256;27;20204;-79
2023/03/30 07:30:09;;;;;;;8.52;5.15;;;13.50;99.90;;;;;;5113736;27;20208;-80
2023/03/30 07:32:37;;;;;;;8.70;5.50;;;13.70;99.90;;;;;;5113232;27;20258;-81
2023/03/30 07:35:04;;;;;;;8.55;5.10;;;13.80;99.90;;;;;;5113324;28;20256;-81
2023/03/30 07:37:31;;;;;;;5.60;4.90;;;13.90;99.90;;;;;;5112434;28;20253;-78
2023/03/30 07:39:59;;;;;;;12.98;4.70;;;14.00;99.90;;;;;;5113939;28;20244;-79
2023/03/30 07:42:26;;;;;;;7.68;5.20;;;14.00;99.90;;;;;;5113782;28;20208;-78
2023/03/30 07:44:53;;;;;;;7.65;4.82;;;14.10;99.90;;;;;;5114090;28;20317;-78
2023/03/30 07:47:20;;;;;;;11.13;5.43;;;14.50;99.90;;;;;;5113646;28;20232;-77
2023/03/30 07:49:48;;;;;;;7.28;4.00;;;14.80;99.90;;;;;;5113995;28;20201;-82
2023/03/30 07:52:15;;;;;;;8.02;4.85;;;14.90;99.90;;;;;;5113695;28;20204;-83
2023/03/30 07:54:43;;;;;;;8.90;5.40;;;14.90;99.90;;;;;;5113056;28;20575;-81
2023/03/30 07:57:10;;;;;;;7.90;4.90;;;15.20;99.90;;;;;;5113598;28;20201;-76
2023/03/30 07:59:38;;;;;;;10.75;4.70;;;15.30;99.90;;;;;;5114172;28;20251;-79
2023/03/30 08:02:05;;;;;;;4.97;3.92;;;15.50;99.90;;;;;;5113895;28;20232;-78
2023/03/30 08:04:33;;;;;;;6.25;5.10;;;15.50;99.90;;;;;;5112784;28;20558;-81
2023/03/30 08:07:02;;;;;;;6.80;4.00;;;15.50;99.90;;;;;;5113569;28;20208;-78
2023/03/30 08:09:29;;;;;;;9.57;3.13;;;15.80;99.90;;;;;;5113333;28;20982;-80
2023/03/30 08:11:56;;;;;;;5.03;3.80;;;16.10;99.90;;;;;;5112519;28;20226;-78
2023/03/30 08:14:25;;;;;;;8.57;4.05;;;16.10;99.90;;;;;;5112740;28;20683;-78
2023/03/30 08:16:52;;;;;;;7.43;3.63;;;16.10;99.90;;;;;;5113188;28;20224;-81
2023/03/30 08:19:19;;;;;;;4.22;3.10;;;16.20;99.90;;;;;;5113297;28;20197;-80
2023/03/30 08:21:46;;;;;;;12.35;4.30;;;16.40;99.90;;;;;;5113234;28;20203;-79
2023/03/30 08:24:14;;;;;;;7.78;4.53;;;16.50;99.90;;;;;;5112830;28;20236;-80
2023/03/30 08:26:42;;;;;;;6.43;3.10;;;16.70;99.90;;;;;;5113207;28;20240;-80
2023/03/30 08:29:09;;;;;;;5.05;3.00;;;17.10;99.90;;;;;;5113239;28;20201;-78
2023/03/30 08:31:36;;;;;;;6.47;3.92;;;17.50;99.90;;;;;;5113366;28;20232;-77
2023/03/30 08:34:03;;;;;;;6.10;3.55;;;18.20;99.90;;;;;;5113186;28;20200;-83
2023/03/30 08:36:30;;;;;;;9.02;3.20;;;18.00;99.90;;;;;;5112603;28;20718;-77
2023/03/30 08:38:57;;;;;;;3.45;3.10;;;17.90;99.90;;;;;;5112917;28;20197;-79
2023/03/30 08:41:58;;;;;;;8.52;3.38;;;17.90;99.90;;;;;;5112619;28;20344;-81
2023/03/30 08:44:32;;;;;;;6.38;4.55;;;18.10;99.90;;;;;;5112537;28;20236;-80
2023/03/30 08:47:02;;;;;;;5.03;3.58;;;18.40;99.90;;;;;;5112669;28;20685;-81
2023/03/30 08:49:33;;;;;;;6.18;2.80;;;19.10;99.90;;;;;;5112345;28;20219;-80
2023/03/30 08:52:02;;;;;;;7.03;3.65;;;20.00;99.90;;;;;;5112398;28;20200;-80
2023/03/30 08:54:30;;;;;;;4.95;3.05;;;19.20;99.90;;;;;;5112419;28;20744;-79
2023/03/30 08:57:02;;;;;;;5.72;4.07;;;18.80;99.90;;;;;;5112896;28;20286;-80
2023/03/30 08:59:39;;;;;;;6.22;3.67;;;18.60;99.90;;;;;;5112233;28;20209;-79
2023/03/30 09:02:15;;;;;;;8.80;4.18;;;18.80;99.90;;;;;;5112687;28;20253;-78
2023/03/30 09:04:55;;;;;;;6.95;3.15;;;19.20;99.90;;;;;;5112186;28;20261;-81
2023/03/30 09:07:24;;;;;;;6.45;3.85;;;18.90;99.90;;;;;;5112025;28;20257;-80
2023/03/30 09:09:52;;;;;;;6.85;3.70;;;20.00;99.90;;;;;;5112378;28;20269;-78
2023/03/30 09:12:30;;;;;;;9.80;2.75;;;19.90;99.90;;;;;;5111988;28;20240;-82
2023/03/30 09:15:00;;;;;;;7.90;3.25;;;19.60;99.90;;;;;;5108983;27;20204;-80
2023/03/30 09:17:32;;;;;;;7.20;2.70;;;19.70;99.90;;;;;;5110389;28;20270;-80
2023/03/30 09:20:05;;;;;;;5.95;2.50;;;20.70;99.90;;;;;;5111872;28;20200;-80
2023/03/30 09:22:38;;;;;;;2.78;2.10;;;21.20;99.90;;;;;;5111622;28;20213;-80
2023/03/30 09:25:16;;;;;;;3.78;2.13;;;21.10;99.90;;;;;;5112769;28;20236;-90
2023/03/30 09:27:54;;;;;;;5.03;2.88;;;21.40;99.90;;;;;;5109382;28;20208;-80
2023/03/30 09:30:25;;;;;;;9.57;3.25;;;20.30;99.90;;;;;;5111364;28;20229;-82
2023/03/30 09:32:59;;;;;;;7.15;2.47;;;20.40;99.90;;;;;;5111014;28;20747;-84
2023/03/30 09:35:33;;;;;;;3.83;2.10;;;20.40;99.90;;;;;;5097542;28;20735;-80
2023/03/30 09:38:00;;;;;;;5.18;2.65;;;20.90;99.90;;;;;;5106371;27;20208;-80
2023/03/30 09:40:43;;;;;;;4.40;2.45;;;21.70;99.90;;;;;;5110576;28;20686;-81
2023/03/30 09:43:17;;;;;;;6.50;2.25;;;22.60;99.90;;;;;;5111405;28;20384;-77
2023/03/30 09:45:45;;;;;;;6.22;3.35;;;22.80;99.90;;;;;;5111859;28;20236;-82
2023/03/30 09:48:15;;;;;;;7.18;2.42;;;23.10;99.90;;;;;;5111019;28;20208;-79
2023/03/30 09:50:45;;;;;;;3.75;1.80;;;22.30;99.90;;;;;;5111827;28;20205;-77
2023/03/30 09:53:23;;;;;;;4.00;2.25;;;21.90;99.90;;;;;;5111734;28;20292;-80
2023/03/30 09:55:58;;;;;;;8.70;2.83;;;21.80;99.90;;;;;;5111341;28;20239;-77
2023/03/30 09:58:31;;;;;;;4.78;1.88;;;21.60;99.90;;;;;;5110437;28;20208;-79
2023/03/30 10:01:04;;;;;;;9.65;2.90;;;22.00;99.90;;;;;;5111099;28;20240;-78
2023/03/30 10:03:31;;;;;;;3.42;2.03;;;21.30;99.90;;;;;;5100025;28;20244;-81
2023/03/30 10:06:04;;;;;;;4.10;2.63;;;21.40;99.90;;;;;;5111305;28;20301;-78
2023/03/30 10:08:32;;;;;;;9.95;2.28;;;21.60;99.90;;;;;;5108688;28;20265;-79
2023/03/30 10:11:02;;;;;;;3.97;2.13;;;22.30;99.90;;;;;;5109377;28;20265;-81
2023/03/30 10:13:32;;;;;;;9.10;2.53;;;22.10;99.90;;;;;;5120044;27;20205;-76
2023/03/30 10:16:05;;;;;;;6.97;2.15;;;22.30;99.90;;;;;;5110730;28;20263;-78
2023/03/30 10:18:39;;;;;;;5.28;2.15;;;22.60;99.90;;;;;;5109191;28;20207;-78
2023/03/30 10:21:18;;;;;;;5.53;1.92;;;23.80;99.90;;;;;;5097183;28;20236;-78
2023/03/30 10:23:47;;;;;;;5.43;2.38;;;26.00;99.90;;;;;;5110496;28;20236;-78
2023/03/30 10:26:17;;;;;;;8.32;2.60;;;24.40;99.90;;;;;;5110253;28;20241;-78
2023/03/30 10:28:59;;;;;;;6.88;3.28;;;23.00;99.90;;;;;;5115553;28;20215;-78
2023/03/30 10:31:27;;;;;;;8.30;3.22;;;21.20;99.90;;;;;;5113896;28;20201;-78
2023/03/30 10:33:57;;;;;;;6.63;2.65;;;20.80;99.90;;;;;;5115293;28;20247;-76
2023/03/30 10:36:29;;;;;;;6.10;2.97;;;20.40;99.90;;;;;;5114467;28;20236;-78
2023/03/30 10:39:04;;;;;;;3.42;2.05;;;20.40;99.90;;;;;;5115013;28;20201;-76
2023/03/30 10:41:32;;;;;;;4.45;2.75;;;20.80;99.90;;;;;;5114726;28;20246;-78
2023/03/30 10:44:14;;;;;;;8.45;3.33;;;21.60;99.90;;;;;;5115235;28;20243;-78
2023/03/30 10:46:42;;;;;;;3.90;2.65;;;22.20;99.90;;;;;;5114710;28;20631;-79
2023/03/30 10:49:15;;;;;;;5.65;2.50;;;22.40;99.90;;;;;;5115075;28;20250;-78
2023/03/30 10:51:54;;;;;;;5.93;2.92;;;21.80;99.90;;;;;;5114790;28;20237;-79
2023/03/30 10:54:29;;;;;;;4.35;2.75;;;21.00;99.90;;;;;;5114619;28;20611;-78
2023/03/30 10:57:01;;;;;;;7.70;3.65;;;20.70;99.90;;;;;;5114872;28;20259;-78
2023/03/30 10:59:47;;;;;;;6.85;2.70;;;20.20;99.90;;;;;;5114289;28;20244;-78
2023/03/30 11:02:41;;;;;;;6.03;3.40;;;19.80;99.90;;;;;;5114284;28;20718;-77
2023/03/30 11:05:12;;;;;;;5.53;2.40;;;20.40;99.90;;;;;;5114803;28;20253;-79
2023/03/30 11:07:43;;;;;;;7.63;2.13;;;20.80;99.90;;;;;;5114645;28;20756;-80
2023/03/30 11:10:16;;;;;;;6.28;3.40;;;21.10;99.90;;;;;;5113610;28;20209;-80
2023/03/30 11:12:47;;;;;;;6.60;2.75;;;20.70;99.90;;;;;;5114667;28;20239;-77
2023/03/30 11:15:19;;;;;;;5.72;2.67;;;21.00;99.90;;;;;;5112595;28;20236;-78
2023/03/30 11:17:54;;;;;;;9.52;3.30;;;21.60;99.90;;;;;;5113931;28;20289;-79
2023/03/30 11:20:27;;;;;;;11.60;4.10;;;22.30;99.90;;;;;;5113946;28;20299;-79
2023/03/30 11:23:07;;;;;;;16.83;8.95;;;22.20;99.90;;;;;;5114300;28;20251;-78
2023/03/30 11:25:39;;;;;;;18.73;8.38;;;21.60;99.90;;;;;;5114564;28;20197;-78
2023/03/30 11:28:16;;;;;;;12.75;5.80;;;20.90;99.90;;;;;;5114797;28;20251;-78
2023/03/30 11:30:45;;;;;;;10.20;4.63;;;20.50;99.90;;;;;;5114185;28;20281;-78
2023/03/30 11:33:23;;;;;;;5.57;2.80;;;20.80;99.90;;;;;;5114057;28;20255;-77
2023/03/30 11:35:55;;;;;;;9.15;3.35;;;20.70;99.90;;;;;;5114071;28;20265;-80
2023/03/30 11:38:28;;;;;;;9.35;3.30;;;21.00;99.90;;;;;;5112900;28;20201;-78
2023/03/30 11:40:58;;;;;;;11.82;5.20;;;21.30;99.90;;;;;;5113941;28;20205;-79
2023/03/30 11:43:29;;;;;;;10.45;3.25;;;21.60;99.90;;;;;;5112806;28;20672;-78
2023/03/30 11:46:03;;;;;;;6.60;2.90;;;21.30;99.90;;;;;;5113885;28;20213;-78
2023/03/30 11:48:49;;;;;;;10.15;5.45;;;21.40;99.90;;;;;;5113473;28;20265;-77
2023/03/30 11:51:31;;;;;;;9.63;4.75;;;21.10;99.90;;;;;;5113400;28;20262;-79
2023/03/30 11:54:17;;;;;;;8.00;3.45;;;21.30;99.90;;;;;;5113484;28;20236;-80
2023/03/30 11:56:48;;;;;;;7.25;3.33;;;21.00;99.90;;;;;;5113632;28;20260;-79
2023/03/30 11:59:23;;;;;;;9.65;4.63;;;21.10;99.90;;;;;;5113263;28;20240;-79
2023/03/30 12:02:08;;;;;;;9.50;4.47;;;21.40;99.90;;;;;;5113528;28;20204;-80
2023/03/30 12:04:44;;;;;;;5.90;2.38;;;22.00;99.90;;;;;;5113943;28;20207;-76
2023/03/30 12:07:20;;;;;;;9.45;3.22;;;22.60;99.90;;;;;;5113017;28;20664;-79
2023/03/30 12:09:52;;;;;;;7.38;2.25;;;22.20;99.90;;;;;;5112578;28;20671;-80
2023/03/30 12:12:25;;;;;;;4.15;2.22;;;22.10;99.90;;;;;;5112432;28;20236;-78
2023/03/30 12:15:04;;;;;;;4.30;2.42;;;21.60;99.90;;;;;;5113217;28;20208;-80
2023/03/30 12:17:47;;;;;;;7.28;3.40;;;21.30;99.90;;;;;;5112738;28;20232;-80
2023/03/30 12:20:34;;;;;;;7.00;2.72;;;20.80;99.90;;;;;;5118917;27;20258;-75
2023/03/30 12:23:15;;;;;;;5.75;2.78;;;20.10;99.90;;;;;;5113368;28;20259;-78
2023/03/30 12:25:54;;;;;;;7.80;3.13;;;19.80;99.90;;;;;;5113180;28;20277;-78
2023/03/30 12:28:24;;;;;;;8.07;4.45;;;19.90;99.90;;;;;;5112259;28;20740;-79
2023/03/30 12:30:56;;;;;;;10.48;3.58;;;20.30;99.90;;;;;;5113238;28;20630;-81
2023/03/30 12:33:33;;;;;;;7.93;2.83;;;21.10;99.90;;;;;;5112856;28;20212;-75
2023/03/30 12:36:02;;;;;;;4.13;2.60;;;21.40;99.90;;;;;;5112366;27;20224;-72
2023/03/30 12:38:38;;;;;;;6.18;2.78;;;21.30;99.90;;;;;;5112208;28;20236;-73
2023/03/30 12:41:14;;;;;;;9.30;2.70;;;21.20;99.90;;;;;;5105077;28;20219;-75
2023/03/30 12:44:14;;;;;;;8.77;2.13;;;21.10;99.90;;;;;;5112861;28;20627;-74
2023/03/30 12:46:57;;;;;;;8.50;2.60;;;21.00;99.90;;;;;;5112585;28;20213;-76
2023/03/30 12:49:33;;;;;;;5.35;3.33;;;21.20;99.90;;;;;;5110010;28;20213;-77
2023/03/30 12:52:09;;;;;;;10.55;2.83;;;22.00;99.90;;;;;;5110949;28;20232;-75
2023/03/30 12:55:00;;;;;;;10.40;3.15;;;22.70;99.90;;;;;;5111351;28;20204;-76
2023/03/30 12:57:36;;;;;;;6.50;2.95;;;23.00;99.90;;;;;;5111605;28;20324;-75
2023/03/30 13:00:22;;;;;;;5.82;2.65;;;22.60;99.90;;;;;;5112597;28;20788;-74
2023/03/30 13:03:05;;;;;;;7.25;3.25;;;22.50;99.90;;;;;;5112065;28;20200;-76
2023/03/30 13:05:35;;;;;;;9.95;2.83;;;21.70;99.90;;;;;;5103521;28;20204;-75
2023/03/30 13:08:05;;;;;;;8.50;3.15;;;21.30;99.90;;;;;;5112127;28;20204;-73